Time;durP1;ratioP1;P1;durP2;ratioP2;P2;SDS_P1;SDS_P2;PMS_P1;PMS_P2;Temp;Humidity;BMP_temperature;BMP_pressure;BME280_temperature;BME280_humidity;BME280_pressure;Samples;Min_cycle;Max_cycle;Signal;HPM_P1;HPM_P2
2021/08/24 00:01:10;;;;;;;4.07;2.70;;;;;;;;;;4133723;28;20038;-45
2021/08/24 00:03:12;;;;;;;4.28;2.92;;;;;;;;;;4136983;28;20057;-51
2021/08/24 00:05:19;;;;;;;4.90;2.58;;;;;;;;;;4135363;28;20029;-51
2021/08/24 00:07:21;;;;;;;3.35;2.38;;;;;;;;;;4139685;28;20029;-51
2021/08/24 00:09:23;;;;;;;5.47;2.50;;;18.70;59.20;;;;;;4132346;28;20384;-50
2021/08/24 00:11:25;;;;;;;3.92;2.42;;;20.50;57.40;;;;;;4134508;28;20042;-54
2021/08/24 00:13:28;;;;;;;3.13;2.43;;;20.80;56.80;;;;;;4128140;28;20038;-49
2021/08/24 00:15:30;;;;;;;3.03;2.40;;;21.10;56.30;;;;;;4130768;28;20109;-52
2021/08/24 00:17:32;;;;;;;2.80;2.00;;;21.40;55.70;;;;;;4134437;28;20041;-46
2021/08/24 00:19:35;;;;;;;2.85;1.98;;;21.70;55.10;;;;;;4128145;28;20268;-51
2021/08/24 00:21:40;;;;;;;3.53;2.00;;;;;;;;;;4127437;28;20117;-50
2021/08/24 00:23:42;;;;;;;2.92;1.80;;;22.00;54.50;;;;;;4129211;28;20037;-51
2021/08/24 00:25:46;;;;;;;2.08;1.80;;;22.50;53.60;;;;;;4135289;28;20026;-51
2021/08/24 00:27:48;;;;;;;3.40;2.13;;;22.70;53.10;;;;;;4127276;28;20488;-52
2021/08/24 00:29:50;;;;;;;2.50;1.80;;;22.90;52.50;;;;;;4129016;28;20125;-53
2021/08/24 00:31:53;;;;;;;1.92;1.52;;;23.20;52.30;;;;;;4137173;28;20058;-55
2021/08/24 00:33:55;;;;;;;3.05;1.88;;;23.30;51.90;;;;;;4138270;28;20030;-57
2021/08/24 00:35:57;;;;;;;1.27;1.17;;;23.50;51.50;;;;;;4134495;28;20371;-53
2021/08/24 00:38:00;;;;;;;1.50;1.23;;;23.70;51.20;;;;;;4135260;28;20675;-54
2021/08/24 00:40:04;;;;;;;1.70;1.40;;;23.90;50.90;;;;;;4123667;28;20562;-56
2021/08/24 00:42:19;;;;;;;1.88;1.25;;;24.10;50.60;;;;;;4133781;28;20036;-52
2021/08/24 00:44:22;;;;;;;1.90;1.10;;;24.30;50.10;;;;;;4129034;28;20033;-55
2021/08/24 00:46:49;;;;;;;2.65;1.10;;;24.40;49.70;;;;;;4130969;28;20042;-55
2021/08/24 00:48:52;;;;;;;1.45;0.90;;;24.60;49.50;;;;;;4135612;28;20034;-53
2021/08/24 00:50:55;;;;;;;1.38;1.00;;;24.80;49.00;;;;;;4125418;28;20049;-50
2021/08/24 00:53:11;;;;;;;1.75;0.98;;;24.90;48.70;;;;;;4131152;28;20431;-53
2021/08/24 00:55:15;;;;;;;1.08;0.70;;;25.10;48.40;;;;;;4131044;28;20075;-51
2021/08/24 00:57:22;;;;;;;2.08;0.90;;;25.30;48.30;;;;;;4128942;28;20033;-53
2021/08/24 00:59:25;;;;;;;0.85;0.60;;;25.40;47.90;;;;;;4126258;28;20042;-56
2021/08/24 01:01:27;;;;;;;0.50;0.50;;;25.50;47.70;;;;;;4128934;28;20375;-56
2021/08/24 01:03:35;;;;;;;1.55;0.73;;;25.70;47.60;;;;;;4138565;28;20212;-55
2021/08/24 01:05:39;;;;;;;0.98;0.60;;;25.80;47.30;;;;;;4127893;28;20072;-57
2021/08/24 01:07:58;;;;;;;1.25;0.60;;;25.90;47.50;;;;;;4131895;28;20030;-59
2021/08/24 01:10:36;;;;;;;0.63;0.63;;;25.70;47.10;;;;;;4138651;28;20034;-58
2021/08/24 01:12:56;;;;;;;1.00;0.50;;;25.40;47.40;;;;;;4129728;28;20038;-58
2021/08/24 01:15:19;;;;;;;1.63;0.50;;;25.10;47.50;;;;;;4131172;28;20057;-53
2021/08/24 01:17:27;;;;;;;1.05;0.60;;;24.90;47.80;;;;;;4125282;28;20027;-59
2021/08/24 01:20:00;;;;;;;1.13;0.70;;;24.60;47.80;;;;;;4133208;28;20034;-57
2021/08/24 01:22:37;;;;;;;0.85;0.60;;;24.40;48.10;;;;;;4129872;28;20038;-55
2021/08/24 01:25:07;;;;;;;0.60;0.50;;;24.20;48.10;;;;;;4091582;28;20092;-53
2021/08/24 01:27:13;;;;;;;0.50;0.50;;;24.00;48.50;;;;;;4130875;28;21465;-58
2021/08/24 01:29:15;;;;;;;0.60;0.50;;;23.90;48.50;;;;;;4131732;28;20068;-60
2021/08/24 01:31:23;;;;;;;0.40;0.40;;;23.80;48.50;;;;;;4132617;28;20400;-56
2021/08/24 01:33:37;;;;;;;0.73;0.52;;;23.70;48.20;;;;;;4137277;28;20030;-54
2021/08/24 01:36:26;;;;;;;1.65;0.70;;;23.60;48.20;;;;;;4136976;28;20033;-50
2021/08/24 01:38:36;;;;;;;7.15;0.70;;;23.50;47.90;;;;;;4112254;28;20356;-56
2021/08/24 01:41:11;;;;;;;2.35;0.60;;;23.30;47.90;;;;;;4129935;28;20325;-55
2021/08/24 01:43:17;;;;;;;0.60;0.60;;;23.20;48.10;;;;;;4135865;28;20448;-56
2021/08/24 01:45:31;;;;;;;1.30;0.50;;;23.10;47.90;;;;;;4129400;28;20171;-50
2021/08/24 01:47:59;;;;;;;2.53;0.90;;;23.00;48.10;;;;;;4138461;28;20036;-53
2021/08/24 01:50:17;;;;;;;2.80;0.63;;;23.00;48.30;;;;;;4135489;28;20068;-53
2021/08/24 01:52:23;;;;;;;0.85;0.60;;;22.90;48.60;;;;;;4135916;28;20053;-55
2021/08/24 01:54:34;;;;;;;0.57;0.45;;;22.80;48.30;;;;;;4130737;28;20109;-54
2021/08/24 01:56:38;;;;;;;0.82;0.50;;;22.70;48.20;;;;;;4133980;28;20443;-53
2021/08/24 01:58:49;;;;;;;2.63;0.70;;;22.60;48.50;;;;;;4137455;28;20030;-55
2021/08/24 02:00:56;;;;;;;0.50;0.40;;;22.50;49.00;;;;;;4134095;28;20312;-57
2021/08/24 02:03:08;;;;;;;1.45;0.50;;;22.50;49.00;;;;;;4134975;28;20228;-48
2021/08/24 02:05:25;;;;;;;2.78;0.50;;;22.40;49.50;;;;;;4134093;28;20038;-53
2021/08/24 02:07:32;;;;;;;1.30;0.57;;;22.40;49.90;;;;;;4140482;28;20029;-52
2021/08/24 02:09:41;;;;;;;0.50;0.50;;;22.30;49.90;;;;;;4135749;28;20366;-56
2021/08/24 02:11:44;;;;;;;0.70;0.60;;;22.20;49.70;;;;;;4132510;28;20495;-50
2021/08/24 02:13:49;;;;;;;0.65;0.50;;;22.20;49.80;;;;;;4128582;28;20105;-51
2021/08/24 02:15:56;;;;;;;0.70;0.60;;;22.10;49.80;;;;;;4133100;28;20088;-48
2021/08/24 02:18:00;;;;;;;0.70;0.38;;;22.10;49.80;;;;;;4125266;28;20080;-52
2021/08/24 02:20:22;;;;;;;0.77;0.50;;;22.00;49.80;;;;;;4131623;28;20543;-52
2021/08/24 02:22:34;;;;;;;0.80;0.43;;;22.00;50.40;;;;;;4134757;28;20063;-50
2021/08/24 02:24:53;;;;;;;0.90;0.50;;;21.90;50.20;;;;;;4133655;28;20350;-53
2021/08/24 02:26:56;;;;;;;1.15;0.52;;;21.90;50.30;;;;;;4124817;28;20022;-49
2021/08/24 02:29:00;;;;;;;1.80;0.75;;;21.80;50.40;;;;;;4127929;28;20550;-49
2021/08/24 02:31:13;;;;;;;1.05;0.60;;;21.80;50.50;;;;;;4133375;28;20026;-52
2021/08/24 02:33:17;;;;;;;0.88;0.60;;;21.70;50.60;;;;;;4132811;28;20057;-52
2021/08/24 02:35:36;;;;;;;0.63;0.50;;;21.70;50.70;;;;;;4135046;28;20034;-48
2021/08/24 02:37:51;;;;;;;0.50;0.50;;;21.60;50.60;;;;;;4135758;28;20948;-49
2021/08/24 02:40:22;;;;;;;1.00;0.47;;;21.60;51.00;;;;;;4130486;28;20062;-47
2021/08/24 02:42:38;;;;;;;1.05;0.50;;;21.60;51.00;;;;;;4137733;28;20494;-50
2021/08/24 02:45:11;;;;;;;0.73;0.52;;;21.50;51.00;;;;;;4136026;28;20053;-52
2021/08/24 02:47:14;;;;;;;0.57;0.52;;;21.50;51.20;;;;;;4115492;28;20041;-53
2021/08/24 02:49:27;;;;;;;1.08;0.60;;;21.40;51.20;;;;;;4138508;28;20101;-49
2021/08/24 02:51:30;;;;;;;0.50;0.50;;;21.40;50.80;;;;;;4137029;28;20557;-48
2021/08/24 02:53:38;;;;;;;1.00;0.60;;;21.30;50.60;;;;;;4139038;28;20022;-51
2021/08/24 02:55:40;;;;;;;0.75;0.60;;;21.30;50.50;;;;;;4135618;28;20033;-49
2021/08/24 02:57:42;;;;;;;2.17;0.77;;;21.20;50.40;;;;;;4129923;28;20122;-51
2021/08/24 02:59:44;;;;;;;2.05;0.80;;;;;;;;;;4135177;28;20041;-52
2021/08/24 03:01:46;;;;;;;0.40;0.40;;;;;;;;;;4129977;28;20554;-52
2021/08/24 03:03:48;;;;;;;0.50;0.50;;;;;;;;;;4131987;28;20033;-51
2021/08/24 03:05:50;;;;;;;0.95;0.70;;;;;;;;;;4133211;28;20037;-51
2021/08/24 03:07:53;;;;;;;1.00;0.60;;;;;;;;;;4135365;28;20157;-53
2021/08/24 03:10:00;;;;;;;1.85;0.73;;;;;;;;;;4131509;28;20088;-49
2021/08/24 03:12:12;;;;;;;1.50;0.85;;;;;;;;;;4137820;28;20058;-49
2021/08/24 03:14:28;;;;;;;0.50;0.50;;;21.20;50.40;;;;;;4142111;28;20030;-50
2021/08/24 03:16:38;;;;;;;0.50;0.50;;;20.90;51.80;;;;;;4140243;28;20057;-52
2021/08/24 03:18:50;;;;;;;1.38;1.10;;;20.80;51.80;;;;;;4137532;28;20029;-50
2021/08/24 03:20:57;;;;;;;1.25;0.90;;;20.80;50.80;;;;;;4140096;28;20428;-50
2021/08/24 03:23:01;;;;;;;2.05;0.88;;;20.70;50.80;;;;;;4141786;28;20488;-48
2021/08/24 03:25:05;;;;;;;1.35;0.85;;;20.70;50.90;;;;;;4138643;28;20367;-46
2021/08/24 03:27:09;;;;;;;0.95;0.80;;;20.60;50.90;;;;;;4134202;28;20038;-49
2021/08/24 03:29:15;;;;;;;1.15;0.80;;;20.60;50.90;;;;;;4145897;28;20048;-49
2021/08/24 03:31:19;;;;;;;1.13;0.90;;;20.60;51.00;;;;;;4137989;28;20125;-44
2021/08/24 03:33:21;;;;;;;0.55;0.50;;;20.50;51.10;;;;;;4135934;28;20534;-52
2021/08/24 03:35:23;;;;;;;0.75;0.70;;;20.50;51.60;;;;;;4128528;28;20041;-52
2021/08/24 03:37:25;;;;;;;0.68;0.68;;;;;;;;;;4131491;28;20034;-51
2021/08/24 03:39:28;;;;;;;1.15;0.60;;;;;;;;;;4136691;28;20446;-51
2021/08/24 03:41:30;;;;;;;0.60;0.60;;;20.40;51.70;;;;;;4138602;28;20144;-50
2021/08/24 03:43:33;;;;;;;10.80;1.17;;;20.40;51.90;;;;;;4139976;28;20026;-48
2021/08/24 03:45:39;;;;;;;3.53;1.40;;;20.40;52.70;;;;;;4144624;28;20091;-47
2021/08/24 03:47:41;;;;;;;4.78;1.00;;;20.30;52.70;;;;;;4135987;28;20022;-48
2021/08/24 03:49:44;;;;;;;4.75;1.20;;;20.30;52.40;;;;;;4135530;28;20040;-52
2021/08/24 03:51:46;;;;;;;2.33;1.25;;;20.30;52.90;;;;;;4136131;28;20510;-48
2021/08/24 03:53:48;;;;;;;3.70;1.05;;;20.30;52.80;;;;;;4139130;28;20039;-47
2021/08/24 03:55:50;;;;;;;1.75;0.85;;;20.20;52.50;;;;;;4145562;28;20021;-48
2021/08/24 03:57:52;;;;;;;1.90;1.05;;;20.20;52.80;;;;;;4137914;28;20029;-49
2021/08/24 03:59:55;;;;;;;2.85;0.75;;;20.10;52.70;;;;;;4143878;28;20487;-46
2021/08/24 04:01:57;;;;;;;;;;;20.10;53.00;;;;;;4125478;28;20304;-45
2021/08/24 04:03:59;;;;;;;6.55;0.93;;;20.10;53.60;;;;;;4134773;28;19919;-49
2021/08/24 04:06:03;;;;;;;4.03;0.83;;;20.20;54.20;;;;;;4128605;28;20022;-46
2021/08/24 04:08:05;;;;;;;2.17;0.60;;;20.40;54.20;;;;;;4128487;28;20986;-47
2021/08/24 04:10:08;;;;;;;6.07;0.90;;;20.70;53.90;;;;;;4139058;28;20427;-49
2021/08/24 04:12:10;;;;;;;1.43;0.70;;;21.10;53.50;;;;;;4127302;28;20124;-48
2021/08/24 04:14:13;;;;;;;1.58;0.52;;;21.40;53.00;;;;;;4128263;28;20268;-44
2021/08/24 04:16:15;;;;;;;1.55;0.63;;;21.70;52.60;;;;;;4128192;28;20030;-45
2021/08/24 04:18:17;;;;;;;2.25;0.70;;;22.00;52.20;;;;;;4123407;28;20034;-44
2021/08/24 04:20:19;;;;;;;1.90;0.70;;;22.20;51.80;;;;;;4126107;28;20360;-46
2021/08/24 04:22:23;;;;;;;0.68;0.50;;;22.50;51.60;;;;;;4126180;28;20083;-45
2021/08/24 04:24:25;;;;;;;3.25;0.75;;;22.70;51.10;;;;;;4126932;28;20037;-45
2021/08/24 04:26:27;;;;;;;1.60;0.63;;;22.90;50.90;;;;;;4131719;28;20083;-48
2021/08/24 04:28:30;;;;;;;1.45;0.68;;;23.10;50.50;;;;;;4131851;28;20100;-44
2021/08/24 04:30:32;;;;;;;1.07;0.80;;;23.30;50.20;;;;;;4131884;28;20030;-47
2021/08/24 04:32:37;;;;;;;1.80;0.60;;;23.50;49.90;;;;;;4135171;28;20022;-45
2021/08/24 04:34:39;;;;;;;3.13;0.80;;;23.60;49.60;;;;;;4132515;28;20076;-48
2021/08/24 04:36:41;;;;;;;1.92;0.65;;;23.70;49.20;;;;;;4134338;28;20037;-47
2021/08/24 04:38:43;;;;;;;1.95;0.73;;;23.60;49.00;;;;;;4133095;28;20053;-45
2021/08/24 04:40:46;;;;;;;2.03;0.85;;;23.50;49.30;;;;;;4134299;28;20029;-45
2021/08/24 04:42:48;;;;;;;1.88;0.70;;;23.30;49.20;;;;;;4138233;28;20042;-44
2021/08/24 04:44:50;;;;;;;1.23;0.70;;;23.10;49.50;;;;;;4132620;28;20127;-48
2021/08/24 04:46:52;;;;;;;1.55;0.70;;;23.00;49.40;;;;;;4132361;28;20430;-47
2021/08/24 04:48:54;;;;;;;1.75;0.85;;;22.90;49.70;;;;;;4138409;28;20038;-46
2021/08/24 04:50:57;;;;;;;1.67;0.98;;;22.70;49.70;;;;;;4136530;28;20037;-50
2021/08/24 04:52:59;;;;;;;1.38;0.68;;;22.60;49.70;;;;;;4138482;28;20026;-44
2021/08/24 04:55:01;;;;;;;1.45;0.70;;;22.50;49.90;;;;;;4133178;28;20099;-44
2021/08/24 04:57:05;;;;;;;1.67;0.90;;;22.30;50.10;;;;;;4135122;28;20330;-44
2021/08/24 04:59:07;;;;;;;2.15;1.05;;;22.30;50.10;;;;;;4135577;28;20033;-43
2021/08/24 05:01:09;;;;;;;1.48;0.73;;;22.20;50.30;;;;;;4134814;28;20018;-44
2021/08/24 05:03:11;;;;;;;1.33;0.70;;;22.10;50.30;;;;;;4135027;28;20036;-44
2021/08/24 05:05:13;;;;;;;3.05;1.35;;;22.00;50.50;;;;;;4132219;28;20353;-48
2021/08/24 05:07:15;;;;;;;1.33;0.70;;;21.90;50.60;;;;;;4133318;28;20026;-44
2021/08/24 05:09:18;;;;;;;0.95;0.60;;;21.80;50.50;;;;;;4133041;28;20033;-48
2021/08/24 05:11:21;;;;;;;0.80;0.65;;;21.80;50.70;;;;;;4123443;28;20072;-44
2021/08/24 05:13:23;;;;;;;1.55;0.80;;;21.70;51.00;;;;;;4129898;28;20790;-46
2021/08/24 05:15:26;;;;;;;2.47;0.80;;;21.60;50.90;;;;;;4125694;28;20026;-44
2021/08/24 05:17:28;;;;;;;1.92;0.88;;;21.60;50.90;;;;;;4129715;28;20117;-46
2021/08/24 05:19:30;;;;;;;1.10;0.83;;;;;;;;;;4114091;28;20042;-44
2021/08/24 05:21:34;;;;;;;0.95;0.50;;;;;;;;;;4126921;28;20287;-43
2021/08/24 05:23:37;;;;;;;0.93;0.50;;;21.50;50.80;;;;;;4128905;28;20135;-43
2021/08/24 05:25:39;;;;;;;0.90;0.57;;;;;;;;;;4125357;28;20494;-44
2021/08/24 05:27:41;;;;;;;0.87;0.50;;;;;;;;;;4130468;28;20077;-43
2021/08/24 05:29:44;;;;;;;1.25;0.70;;;;;;;;;;4133118;28;20455;-44
2021/08/24 05:31:46;;;;;;;1.75;0.75;;;21.30;51.40;;;;;;4124378;28;20459;-44
2021/08/24 05:33:48;;;;;;;0.68;0.57;;;;;;;;;;4129852;28;20125;-45
2021/08/24 05:35:50;;;;;;;0.95;0.47;;;;;;;;;;4129039;28;20026;-46
2021/08/24 05:37:52;;;;;;;0.52;0.45;;;;;;;;;;4124234;28;20395;-44
2021/08/24 05:39:54;;;;;;;0.57;0.45;;;;;;;;;;4129957;28;20073;-47
2021/08/24 05:41:56;;;;;;;1.55;0.68;;;;;;;;;;4127040;28;20072;-48
2021/08/24 05:43:58;;;;;;;0.50;0.50;;;;;;;;;;4132518;28;20227;-50
2021/08/24 05:46:02;;;;;;;0.93;0.60;;;;;;;;;;4131692;28;20038;-52
2021/08/24 05:48:04;;;;;;;0.65;0.50;;;;;;;;;;4132097;28;20451;-54
2021/08/24 05:50:07;;;;;;;1.20;0.60;;;;;;;;;;4132312;28;20026;-50
2021/08/24 05:52:10;;;;;;;1.10;0.60;;;;;;;;;;4130961;28;20032;-53
2021/08/24 05:54:12;;;;;;;1.25;0.57;;;;;;;;;;4130454;28;20029;-51
2021/08/24 05:56:16;;;;;;;0.70;0.70;;;;;;;;;;4134710;28;20037;-48
2021/08/24 05:58:18;;;;;;;0.50;0.50;;;;;;;;;;4131586;28;20558;-50
2021/08/24 06:00:21;;;;;;;0.73;0.57;;;;;;;;;;4134896;28;20103;-44
2021/08/24 06:02:23;;;;;;;0.85;0.43;;;;;;;;;;4134924;28;20411;-51
2021/08/24 06:04:26;;;;;;;0.75;0.50;;;;;;;;;;4123999;28;20030;-47
2021/08/24 06:06:30;;;;;;;0.50;0.50;;;;;;;;;;4134753;28;20415;-45
2021/08/24 06:08:32;;;;;;;0.57;0.40;;;;;;;;;;4127600;28;20030;-47
2021/08/24 06:10:38;;;;;;;0.60;0.60;;;21.00;52.20;;;;;;4130573;28;20459;-50
2021/08/24 06:12:41;;;;;;;0.45;0.45;;;20.20;53.20;;;;;;4125876;28;20037;-50
2021/08/24 06:14:43;;;;;;;0.65;0.55;;;20.10;53.20;;;;;;4130114;28;20038;-48
2021/08/24 06:16:45;;;;;;;0.50;0.50;;;20.10;53.20;;;;;;4133049;28;20030;-50
2021/08/24 06:18:47;;;;;;;0.30;0.30;;;20.10;53.50;;;;;;4135824;28;20026;-45
2021/08/24 06:20:50;;;;;;;0.60;0.60;;;20.00;53.60;;;;;;4137383;28;20022;-48
2021/08/24 06:22:52;;;;;;;0.93;0.50;;;20.00;53.30;;;;;;4136873;28;20041;-46
2021/08/24 06:24:54;;;;;;;0.60;0.50;;;20.00;53.30;;;;;;4134525;28;20035;-45
2021/08/24 06:26:57;;;;;;;0.88;0.57;;;19.90;53.70;;;;;;4138064;28;20034;-45
2021/08/24 06:29:00;;;;;;;0.93;0.50;;;19.90;54.20;;;;;;4136761;28;20443;-48
2021/08/24 06:31:02;;;;;;;1.55;0.45;;;19.80;53.70;;;;;;4136723;28;20386;-47
2021/08/24 06:33:04;;;;;;;3.80;0.70;;;19.80;53.90;;;;;;4134602;28;20130;-49
2021/08/24 06:35:07;;;;;;;1.27;0.40;;;19.80;53.60;;;;;;4128638;28;20557;-47
2021/08/24 06:37:09;;;;;;;0.50;0.50;;;19.70;53.70;;;;;;4132479;28;20087;-49
2021/08/24 06:39:12;;;;;;;0.63;0.55;;;19.70;53.70;;;;;;4137007;28;20499;-46
2021/08/24 06:41:16;;;;;;;0.50;0.50;;;19.70;53.70;;;;;;4137226;28;20088;-48
2021/08/24 06:43:18;;;;;;;0.30;0.30;;;19.70;53.70;;;;;;4134119;28;20114;-49
2021/08/24 06:45:27;;;;;;;0.60;0.60;;;19.60;53.70;;;;;;4139011;28;20101;-50
2021/08/24 06:47:29;;;;;;;0.35;0.35;;;19.60;53.90;;;;;;4136304;28;20029;-46
2021/08/24 06:49:31;;;;;;;0.47;0.40;;;19.60;54.10;;;;;;4136910;28;20038;-50
2021/08/24 06:51:34;;;;;;;0.40;0.40;;;19.50;54.00;;;;;;4138568;28;20064;-48
2021/08/24 06:53:38;;;;;;;0.40;0.40;;;19.50;54.40;;;;;;4115842;28;20392;-50
2021/08/24 06:55:40;;;;;;;1.27;0.40;;;19.50;54.50;;;;;;4136943;28;20084;-49
2021/08/24 06:57:44;;;;;;;0.57;0.50;;;19.40;54.20;;;;;;4129088;28;20029;-52
2021/08/24 06:59:46;;;;;;;0.70;0.70;;;19.40;54.30;;;;;;4136811;28;20570;-52
2021/08/24 07:01:48;;;;;;;1.30;1.17;;;19.40;54.40;;;;;;4133967;28;20396;-54
2021/08/24 07:03:51;;;;;;;1.92;1.35;;;19.30;54.30;;;;;;4114866;28;20089;-48
2021/08/24 07:05:53;;;;;;;1.98;1.70;;;;;;;;;;4135670;28;20190;-52
2021/08/24 07:07:55;;;;;;;2.75;1.30;;;;;;;;;;4135198;28;20038;-49
2021/08/24 07:09:57;;;;;;;1.75;1.48;;;;;;;;;;4135305;28;20444;-47
2021/08/24 07:11:59;;;;;;;2.53;1.50;;;;;;;;;;4138059;28;20377;-50
2021/08/24 07:14:05;;;;;;;12.23;1.88;;;;;;;;;;4136586;28;20054;-51
2021/08/24 07:16:08;;;;;;;2.47;1.60;;;;;;;;;;4130982;28;20152;-52
2021/08/24 07:18:11;;;;;;;2.03;1.50;;;;;;;;;;4135296;28;20504;-49
2021/08/24 07:20:14;;;;;;;2.25;1.60;;;;;;;;;;4139593;28;20061;-50
2021/08/24 07:22:16;;;;;;;2.53;1.80;;;;;;;;;;4137206;28;20034;-52
2021/08/24 07:24:18;;;;;;;1.95;1.45;;;;;;;;;;4136012;28;20081;-49
2021/08/24 07:26:21;;;;;;;1.20;1.10;;;;;;;;;;4136746;28;20125;-53
2021/08/24 07:28:23;;;;;;;2.87;1.63;;;;;;;;;;4132754;28;20029;-53
2021/08/24 07:30:25;;;;;;;2.78;1.80;;;;;;;;;;4132516;28;20030;-53
2021/08/24 07:32:27;;;;;;;1.83;1.63;;;;;;;;;;4141440;28;20104;-51
2021/08/24 07:34:29;;;;;;;1.65;1.38;;;;;;;;;;4131454;28;20026;-54
2021/08/24 07:36:31;;;;;;;2.15;1.30;;;;;;;;;;4134995;28;20030;-51
2021/08/24 07:38:33;;;;;;;1.73;1.40;;;;;;;;;;4131251;28;20539;-49
2021/08/24 07:40:36;;;;;;;2.53;1.35;;;;;;;;;;4139844;28;20466;-48
2021/08/24 07:42:38;;;;;;;1.20;0.82;;;;;;;;;;4138205;28;20163;-46
2021/08/24 07:44:40;;;;;;;2.33;1.20;;;;;;;;;;4138296;28;20056;-46
2021/08/24 07:46:42;;;;;;;1.30;1.20;;;;;;;;;;4141221;28;20049;-47
2021/08/24 07:48:44;;;;;;;1.95;1.35;;;;;;;;;;4142533;28;20076;-54
2021/08/24 07:50:47;;;;;;;1.50;1.10;;;;;;;;;;4138834;28;20064;-56
2021/08/24 07:52:52;;;;;;;24.35;1.33;;;;;;;;;;4134526;28;20029;-54
2021/08/24 07:54:55;;;;;;;1.90;0.80;;;;;;;;;;4133013;28;20416;-56
2021/08/24 07:56:57;;;;;;;1.70;1.10;;;;;;;;;;4133210;28;20086;-53
2021/08/24 07:58:59;;;;;;;1.30;1.00;;;;;;;;;;4130526;28;20033;-58
2021/08/24 08:01:01;;;;;;;1.00;0.90;;;;;;;;;;4131111;28;20202;-56
2021/08/24 08:03:04;;;;;;;0.77;0.77;;;;;;;;;;4131217;28;20413;-56
2021/08/24 08:05:06;;;;;;;1.10;1.00;;;;;;;;;;4133381;28;20025;-49
2021/08/24 08:07:09;;;;;;;1.10;1.00;;;;;;;;;;4129250;28;20041;-49
2021/08/24 08:09:11;;;;;;;1.80;1.02;;;;;;;;;;4130052;28;20060;-54
2021/08/24 08:11:13;;;;;;;1.40;0.93;;;;;;;;;;4128125;28;20120;-56
2021/08/24 08:13:15;;;;;;;1.90;0.70;;;;;;;;;;4111149;28;20038;-57
2021/08/24 08:15:18;;;;;;;0.80;0.75;;;;;;;;;;4129718;28;20247;-55
2021/08/24 08:17:20;;;;;;;0.63;0.63;;;;;;;;;;4122905;28;20022;-49
2021/08/24 08:19:22;;;;;;;0.68;0.68;;;;;;;;;;4129631;28;20120;-51
2021/08/24 08:21:24;;;;;;;2.55;0.77;;;;;;;;;;4126107;28;20416;-49
2021/08/24 08:23:26;;;;;;;0.95;0.88;;;;;;;;;;4127127;28;20399;-50
2021/08/24 08:25:28;;;;;;;2.08;0.90;;;;;;;;;;4132477;28;20068;-52
2021/08/24 08:27:30;;;;;;;1.40;0.68;;;;;;;;;;4126918;28;20038;-53
2021/08/24 08:29:32;;;;;;;1.80;0.68;;;;;;;;;;4131733;28;20060;-50
2021/08/24 08:31:35;;;;;;;3.45;0.80;;;;;;;;;;4129986;28;20267;-51
2021/08/24 08:33:37;;;;;;;0.85;0.68;;;;;;;;;;4129773;28;20556;-48
2021/08/24 08:35:39;;;;;;;0.98;0.70;;;;;;;;;;4132808;28;20056;-53
2021/08/24 08:37:43;;;;;;;0.60;0.60;;;;;;;;;;4126528;28;20497;-52
2021/08/24 08:39:45;;;;;;;0.50;0.50;;;;;;;;;;4130173;28;20170;-52
2021/08/24 08:42:05;;;;;;;3.40;0.52;;;;;;;;;;4128861;28;20236;-51
2021/08/24 08:44:18;;;;;;;0.47;0.40;;;;;;;;;;4128556;28;20368;-52
2021/08/24 08:46:20;;;;;;;0.60;0.60;;;;;;;;;;4128245;28;20029;-50
2021/08/24 08:48:41;;;;;;;2.00;0.60;;;;;;;;;;4131389;28;20041;-49
2021/08/24 08:50:50;;;;;;;2.65;0.90;;;;;;;;;;4126509;28;20069;-54
2021/08/24 08:53:01;;;;;;;1.98;0.60;;;;;;;;;;4129934;28;20029;-51
2021/08/24 08:55:09;;;;;;;2.03;0.52;;;;;;;;;;4130655;28;20072;-54
2021/08/24 08:57:14;;;;;;;0.57;0.50;;;;;;;;;;4129333;28;20061;-55
2021/08/24 08:59:18;;;;;;;0.55;0.55;;;;;;;;;;4127295;28;20364;-48
2021/08/24 09:01:20;;;;;;;0.90;0.60;;;;;;;;;;4126407;28;20135;-53
2021/08/24 09:03:25;;;;;;;1.52;0.70;;;;;;;;;;4128013;28;20109;-53
2021/08/24 09:05:27;;;;;;;0.73;0.73;;;;;;;;;;4120579;28;20033;-56
2021/08/24 09:07:48;;;;;;;4.75;0.52;;;;;;;;;;4120793;28;20037;-51
2021/08/24 09:09:50;;;;;;;0.77;0.50;;;;;;;;;;4122905;28;20405;-50
2021/08/24 09:11:53;;;;;;;0.50;0.50;;;;;;;;;;4129333;28;20045;-48
2021/08/24 09:14:03;;;;;;;0.95;0.70;;;;;;;;;;4125415;28;20387;-52
2021/08/24 09:16:13;;;;;;;0.50;0.50;;;;;;;;;;4126073;28;20549;-54
2021/08/24 09:18:18;;;;;;;0.50;0.50;;;;;;;;;;4130854;28;20037;-54
2021/08/24 09:20:26;;;;;;;0.50;0.50;;;;;;;;;;4132032;28;20026;-52
2021/08/24 09:22:28;;;;;;;1.10;0.85;;;19.30;55.10;;;;;;4127919;28;20468;-51
2021/08/24 09:24:31;;;;;;;0.50;0.50;;;17.50;56.60;;;;;;4132327;28;20200;-51
2021/08/24 09:26:35;;;;;;;;;;;17.40;56.60;;;;;;4136372;28;20040;-54
2021/08/24 09:28:37;;;;;;;;;;;17.40;56.60;;;;;;4137160;28;19928;-48
2021/08/24 09:30:43;;;;;;;0.40;0.40;;;17.40;57.40;;;;;;4135678;28;19929;-55
2021/08/24 09:32:46;;;;;;;0.60;0.60;;;17.40;56.80;;;;;;4136069;28;20034;-49
2021/08/24 09:34:51;;;;;;;0.40;0.40;;;17.30;56.70;;;;;;4136386;28;20049;-54
2021/08/24 09:36:54;;;;;;;0.57;0.57;;;17.30;56.80;;;;;;4136289;28;20395;-52
2021/08/24 09:39:00;;;;;;;0.60;0.60;;;17.30;56.80;;;;;;4135781;28;20360;-55
2021/08/24 09:41:20;;;;;;;0.43;0.43;;;17.30;56.40;;;;;;4132396;28;20068;-53
2021/08/24 09:43:34;;;;;;;0.45;0.45;;;17.20;56.90;;;;;;4134345;28;20648;-55
2021/08/24 09:45:37;;;;;;;0.45;0.45;;;17.20;57.00;;;;;;4132119;28;20025;-53
2021/08/24 09:47:39;;;;;;;0.45;0.32;;;17.20;57.00;;;;;;4133054;28;20072;-53
2021/08/24 09:49:42;;;;;;;1.55;0.55;;;17.20;57.10;;;;;;4136928;28;20631;-51
2021/08/24 09:51:54;;;;;;;1.00;0.52;;;17.20;57.00;;;;;;4136191;28;20321;-52
2021/08/24 09:54:02;;;;;;;0.40;0.40;;;17.10;57.00;;;;;;4137498;28;20065;-51
2021/08/24 09:56:08;;;;;;;0.40;0.40;;;17.10;57.00;;;;;;4133403;28;20053;-49
2021/08/24 09:58:27;;;;;;;0.63;0.50;;;17.10;57.00;;;;;;4133451;28;20030;-46
2021/08/24 10:00:32;;;;;;;0.65;0.47;;;17.10;57.00;;;;;;4131809;28;20033;-52
2021/08/24 10:02:42;;;;;;;0.57;0.40;;;17.10;57.20;;;;;;4136949;28;20184;-49
2021/08/24 10:04:53;;;;;;;0.32;0.32;;;17.00;57.10;;;;;;4130693;28;20030;-47
2021/08/24 10:07:04;;;;;;;0.40;0.40;;;17.00;57.20;;;;;;4131121;28;20037;-50
2021/08/24 10:09:17;;;;;;;2.60;0.47;;;17.00;57.70;;;;;;4128296;28;20025;-48
2021/08/24 10:11:34;;;;;;;0.70;0.50;;;17.00;58.10;;;;;;4139141;28;20513;-50
2021/08/24 10:13:38;;;;;;;3.33;0.95;;;17.00;57.60;;;;;;4138587;28;20132;-51
2021/08/24 10:15:41;;;;;;;0.85;0.50;;;17.00;57.40;;;;;;4137323;28;20037;-48
2021/08/24 10:17:45;;;;;;;3.30;0.95;;;17.00;57.40;;;;;;4135041;28;20488;-51
2021/08/24 10:19:47;;;;;;;3.78;0.60;;;17.00;57.30;;;;;;4134912;28;20034;-53
2021/08/24 10:21:54;;;;;;;2.67;0.60;;;17.00;57.40;;;;;;4131438;28;20092;-51
2021/08/24 10:24:01;;;;;;;2.10;0.60;;;17.00;57.50;;;;;;4133597;28;20568;-49
2021/08/24 10:26:06;;;;;;;1.13;0.55;;;16.90;57.50;;;;;;4139557;28;20030;-52
2021/08/24 10:28:31;;;;;;;0.75;0.50;;;16.90;57.40;;;;;;4136894;28;20041;-48
2021/08/24 10:30:39;;;;;;;0.98;0.70;;;16.90;57.60;;;;;;4139780;28;20414;-53
2021/08/24 10:32:56;;;;;;;1.60;0.60;;;16.90;57.70;;;;;;4133205;28;20199;-49
2021/08/24 10:35:01;;;;;;;0.45;0.40;;;16.90;57.60;;;;;;4138023;28;20098;-48
2021/08/24 10:37:26;;;;;;;1.77;0.63;;;16.80;57.80;;;;;;4130521;28;20491;-50
2021/08/24 10:39:31;;;;;;;0.60;0.60;;;16.80;57.70;;;;;;4137610;28;20057;-50
2021/08/24 10:41:38;;;;;;;0.55;0.55;;;16.80;57.80;;;;;;4138611;28;20030;-49
2021/08/24 10:43:54;;;;;;;0.40;0.40;;;16.80;58.00;;;;;;4136989;28;20037;-46
2021/08/24 10:46:07;;;;;;;1.42;0.40;;;16.80;58.00;;;;;;4133049;28;20509;-48
2021/08/24 10:48:17;;;;;;;0.40;0.38;;;16.80;57.90;;;;;;4134677;28;20112;-51
2021/08/24 10:50:21;;;;;;;0.60;0.60;;;16.70;58.00;;;;;;4139544;28;20083;-52
2021/08/24 10:52:49;;;;;;;0.90;0.45;;;16.70;57.90;;;;;;4136395;28;20456;-53
2021/08/24 10:55:21;;;;;;;0.40;0.40;;;16.70;57.80;;;;;;4135272;28;20765;-50
2021/08/24 10:57:39;;;;;;;2.15;0.60;;;16.70;57.80;;;;;;4135964;28;20037;-49
2021/08/24 10:59:50;;;;;;;0.93;0.50;;;16.60;57.80;;;;;;4139265;28;20026;-54
2021/08/24 11:01:52;;;;;;;1.58;0.50;;;16.60;57.90;;;;;;4136622;28;20388;-52
2021/08/24 11:03:58;;;;;;;0.40;0.40;;;16.60;58.00;;;;;;4137464;28;20458;-55
2021/08/24 11:06:29;;;;;;;0.70;0.50;;;16.60;57.90;;;;;;4135948;28;20636;-53
2021/08/24 11:09:16;;;;;;;1.75;0.40;;;16.60;58.00;;;;;;4136498;28;20131;-46
2021/08/24 11:11:19;;;;;;;0.43;0.43;;;16.50;58.00;;;;;;4040967;29;20059;-48
2021/08/24 11:13:49;;;;;;;0.55;0.50;;;16.50;57.90;;;;;;4046152;29;20046;-49
2021/08/24 11:16:05;;;;;;;0.38;0.38;;;16.50;57.90;;;;;;4061739;28;20042;-53
2021/08/24 11:18:40;;;;;;;0.60;0.60;;;16.50;58.00;;;;;;4128946;28;20542;-46
2021/08/24 11:20:49;;;;;;;;;;;16.40;58.00;;;;;;4132588;28;20100;-44
2021/08/24 11:22:58;;;;;;;0.50;0.50;;;16.40;58.00;;;;;;4130176;28;20035;-50
2021/08/24 11:25:22;;;;;;;0.60;0.60;;;16.40;58.20;;;;;;4134227;28;20517;-44
2021/08/24 11:28:05;;;;;;;0.47;0.47;;;16.40;58.20;;;;;;4131379;28;20041;-51